Glenwood, Florida
Current Conditions -  °F | °C
As of 8:53 AM on Sunday 25 Jan 2015 (Local Time) from KDAB Reporting Station
Few Clouds Few Clouds  
Wind Chill: 45°   Ceiling: Unl
Heat Index: 48°   Visibility: 10mi
Dew Point: 38°   Wind: 6mph
Humidity: 68%   Direction: 290°WNW
Pressure: 30.1"   Gusts: NA
Location:  29.09°N, 81.35°W
Report Text: KDAB 251353Z 29005KT 10SM FEW200 09/03 A3010 RMK AO2 SLP190 T00890033
Loading
Personal Weather Stations






























Interactive Weather Map New forecast layout! Learn more

10-Day Weather Forecast

Advertisements
Track Severe Weather on mobile